sensor_id;sensor_type;location;lat;lon;timestamp;temperature;humidity
13880;DHT22;7010;48.200;16.332;2023-01-13T00:00:33;7.80;99.90
13880;DHT22;7010;48.200;16.332;2023-01-13T00:03:02;7.80;99.90
13880;DHT22;7010;48.200;16.332;2023-01-13T00:05:30;7.80;99.90
13880;DHT22;7010;48.200;16.332;2023-01-13T00:07:59;7.80;99.90
13880;DHT22;7010;48.200;16.332;2023-01-13T00:10:27;7.80;99.90
13880;DHT22;7010;48.200;16.332;2023-01-13T00:12:57;7.80;99.90
13880;DHT22;7010;48.200;16.332;2023-01-13T00:15:25;7.80;99.90
13880;DHT22;7010;48.200;16.332;2023-01-13T00:17:53;7.80;99.90
13880;DHT22;7010;48.200;16.332;2023-01-13T00:20:22;7.80;99.90
13880;DHT22;7010;48.200;16.332;2023-01-13T00:22:50;7.80;99.90
13880;DHT22;7010;48.200;16.332;2023-01-13T00:25:18;7.80;99.90
13880;DHT22;7010;48.200;16.332;2023-01-13T00:27:46;7.80;99.90
13880;DHT22;7010;48.200;16.332;2023-01-13T00:30:16;7.80;99.90
13880;DHT22;7010;48.200;16.332;2023-01-13T00:32:44;7.80;99.90
13880;DHT22;7010;48.200;16.332;2023-01-13T00:35:13;7.80;99.90
13880;DHT22;7010;48.200;16.332;2023-01-13T00:37:41;7.70;99.90
13880;DHT22;7010;48.200;16.332;2023-01-13T00:40:10;7.70;99.90
13880;DHT22;7010;48.200;16.332;2023-01-13T00:42:38;7.60;99.90
13880;DHT22;7010;48.200;16.332;2023-01-13T00:45:25;7.60;99.90
13880;DHT22;7010;48.200;16.332;2023-01-13T00:47:54;7.60;99.90
13880;DHT22;7010;48.200;16.332;2023-01-13T00:50:22;7.50;99.90
13880;DHT22;7010;48.200;16.332;2023-01-13T00:52:50;7.50;99.90
13880;DHT22;7010;48.200;16.332;2023-01-13T00:55:18;7.50;99.90
13880;DHT22;7010;48.200;16.332;2023-01-13T00:57:46;7.40;99.90
13880;DHT22;7010;48.200;16.332;2023-01-13T01:00:15;7.40;99.90
13880;DHT22;7010;48.200;16.332;2023-01-13T01:02:45;7.40;99.90
13880;DHT22;7010;48.200;16.332;2023-01-13T01:05:13;7.40;99.90
13880;DHT22;7010;48.200;16.332;2023-01-13T01:07:41;7.30;99.90
13880;DHT22;7010;48.200;16.332;2023-01-13T01:10:10;7.30;99.90
13880;DHT22;7010;48.200;16.332;2023-01-13T01:12:38;7.20;99.90
13880;DHT22;7010;48.200;16.332;2023-01-13T01:15:08;7.20;99.90
13880;DHT22;7010;48.200;16.332;2023-01-13T01:17:36;7.20;99.90
13880;DHT22;7010;48.200;16.332;2023-01-13T01:20:07;7.20;99.90
13880;DHT22;7010;48.200;16.332;2023-01-13T01:22:36;7.10;99.90
13880;DHT22;7010;48.200;16.332;2023-01-13T01:25:05;7.10;99.90
13880;DHT22;7010;48.200;16.332;2023-01-13T01:27:33;7.00;99.90
13880;DHT22;7010;48.200;16.332;2023-01-13T01:30:02;7.00;99.90
13880;DHT22;7010;48.200;16.332;2023-01-13T01:32:32;7.00;99.90
13880;DHT22;7010;48.200;16.332;2023-01-13T01:35:01;7.00;99.90
13880;DHT22;7010;48.200;16.332;2023-01-13T01:37:32;7.00;99.90
13880;DHT22;7010;48.200;16.332;2023-01-13T01:40:00;6.90;99.90
13880;DHT22;7010;48.200;16.332;2023-01-13T01:42:28;6.90;99.90
13880;DHT22;7010;48.200;16.332;2023-01-13T01:45:17;6.90;99.90
13880;DHT22;7010;48.200;16.332;2023-01-13T01:47:48;6.90;99.90
13880;DHT22;7010;48.200;16.332;2023-01-13T01:50:17;6.90;99.90
13880;DHT22;7010;48.200;16.332;2023-01-13T01:52:50;6.90;99.90
13880;DHT22;7010;48.200;16.332;2023-01-13T01:55:21;6.90;99.90
13880;DHT22;7010;48.200;16.332;2023-01-13T01:57:53;6.90;99.90
13880;DHT22;7010;48.200;16.332;2023-01-13T02:00:22;6.90;99.90
13880;DHT22;7010;48.200;16.332;2023-01-13T02:02:52;6.90;99.90
13880;DHT22;7010;48.200;16.332;2023-01-13T02:05:21;6.90;99.90
13880;DHT22;7010;48.200;16.332;2023-01-13T02:07:53;6.90;99.90
13880;DHT22;7010;48.200;16.332;2023-01-13T02:10:24;6.90;99.90
13880;DHT22;7010;48.200;16.332;2023-01-13T02:12:54;6.90;99.90
13880;DHT22;7010;48.200;16.332;2023-01-13T02:15:31;6.90;99.90
13880;DHT22;7010;48.200;16.332;2023-01-13T02:18:23;6.90;99.90
13880;DHT22;7010;48.200;16.332;2023-01-13T02:24:44;6.90;99.90
13880;DHT22;7010;48.200;16.332;2023-01-13T02:30:39;7.00;99.90
13880;DHT22;7010;48.200;16.332;2023-01-13T02:33:52;6.90;99.90
13880;DHT22;7010;48.200;16.332;2023-01-13T02:36:27;6.90;99.90
13880;DHT22;7010;48.200;16.332;2023-01-13T02:39:00;6.90;99.90
13880;DHT22;7010;48.200;16.332;2023-01-13T02:41:35;6.90;99.90
13880;DHT22;7010;48.200;16.332;2023-01-13T02:44:27;6.90;99.90
13880;DHT22;7010;48.200;16.332;2023-01-13T02:47:02;6.90;99.90
13880;DHT22;7010;48.200;16.332;2023-01-13T02:49:36;6.80;99.90
13880;DHT22;7010;48.200;16.332;2023-01-13T02:52:09;6.80;99.90
13880;DHT22;7010;48.200;16.332;2023-01-13T02:54:41;6.80;99.90
13880;DHT22;7010;48.200;16.332;2023-01-13T02:57:11;6.80;99.90
13880;DHT22;7010;48.200;16.332;2023-01-13T02:59:42;6.70;99.90
13880;DHT22;7010;48.200;16.332;2023-01-13T03:02:16;6.70;99.90
13880;DHT22;7010;48.200;16.332;2023-01-13T03:04:51;6.60;99.90
13880;DHT22;7010;48.200;16.332;2023-01-13T03:07:43;6.60;99.90
13880;DHT22;7010;48.200;16.332;2023-01-13T03:10:26;6.60;99.90
13880;DHT22;7010;48.200;16.332;2023-01-13T03:13:04;6.60;99.90
13880;DHT22;7010;48.200;16.332;2023-01-13T03:15:41;6.60;99.90
13880;DHT22;7010;48.200;16.332;2023-01-13T03:18:20;6.60;99.90
13880;DHT22;7010;48.200;16.332;2023-01-13T03:20:57;6.60;99.90
13880;DHT22;7010;48.200;16.332;2023-01-13T03:23:30;6.60;99.90
13880;DHT22;7010;48.200;16.332;2023-01-13T03:26:05;6.60;99.90
13880;DHT22;7010;48.200;16.332;2023-01-13T03:28:38;6.60;99.90
13880;DHT22;7010;48.200;16.332;2023-01-13T03:31:12;6.60;99.90
13880;DHT22;7010;48.200;16.332;2023-01-13T03:33:46;6.60;99.90
13880;DHT22;7010;48.200;16.332;2023-01-13T03:36:17;6.50;99.90
13880;DHT22;7010;48.200;16.332;2023-01-13T03:38:51;6.50;99.90
13880;DHT22;7010;48.200;16.332;2023-01-13T03:41:24;6.50;99.90
13880;DHT22;7010;48.200;16.332;2023-01-13T03:44:01;6.50;99.90
13880;DHT22;7010;48.200;16.332;2023-01-13T03:47:00;6.50;99.90
13880;DHT22;7010;48.200;16.332;2023-01-13T03:49:36;6.40;99.90
13880;DHT22;7010;48.200;16.332;2023-01-13T03:52:09;6.40;99.90
13880;DHT22;7010;48.200;16.332;2023-01-13T03:54:45;6.30;99.90
13880;DHT22;7010;48.200;16.332;2023-01-13T03:57:17;6.30;99.90
13880;DHT22;7010;48.200;16.332;2023-01-13T03:59:50;6.20;99.90
13880;DHT22;7010;48.200;16.332;2023-01-13T04:02:28;6.20;99.90
13880;DHT22;7010;48.200;16.332;2023-01-13T04:05:03;6.10;99.90
13880;DHT22;7010;48.200;16.332;2023-01-13T04:07:42;6.10;99.90
13880;DHT22;7010;48.200;16.332;2023-01-13T04:10:17;6.10;99.90
13880;DHT22;7010;48.200;16.332;2023-01-13T04:12:50;6.10;99.90
13880;DHT22;7010;48.200;16.332;2023-01-13T04:15:31;6.20;99.90
13880;DHT22;7010;48.200;16.332;2023-01-13T04:18:12;6.20;99.90
13880;DHT22;7010;48.200;16.332;2023-01-13T04:20:43;6.20;99.90
13880;DHT22;7010;48.200;16.332;2023-01-13T04:23:12;6.20;99.90
13880;DHT22;7010;48.200;16.332;2023-01-13T04:25:41;6.20;99.90
13880;DHT22;7010;48.200;16.332;2023-01-13T04:28:10;6.20;99.90
13880;DHT22;7010;48.200;16.332;2023-01-13T04:30:39;6.30;99.90
13880;DHT22;7010;48.200;16.332;2023-01-13T04:33:08;6.30;99.90
13880;DHT22;7010;48.200;16.332;2023-01-13T04:35:36;6.40;99.90
13880;DHT22;7010;48.200;16.332;2023-01-13T04:38:09;6.40;99.90
13880;DHT22;7010;48.200;16.332;2023-01-13T04:40:38;6.50;99.90
13880;DHT22;7010;48.200;16.332;2023-01-13T04:43:06;6.60;99.90
13880;DHT22;7010;48.200;16.332;2023-01-13T04:45:35;6.60;99.90
13880;DHT22;7010;48.200;16.332;2023-01-13T04:48:04;6.60;99.90
13880;DHT22;7010;48.200;16.332;2023-01-13T04:50:32;6.60;99.90
13880;DHT22;7010;48.200;16.332;2023-01-13T04:53:00;6.60;99.90
13880;DHT22;7010;48.200;16.332;2023-01-13T04:55:30;6.60;99.90
13880;DHT22;7010;48.200;16.332;2023-01-13T04:58:03;6.60;99.90
13880;DHT22;7010;48.200;16.332;2023-01-13T05:00:31;6.50;99.90
13880;DHT22;7010;48.200;16.332;2023-01-13T05:03:00;6.50;99.90
13880;DHT22;7010;48.200;16.332;2023-01-13T05:05:29;6.50;99.90
13880;DHT22;7010;48.200;16.332;2023-01-13T05:07:57;6.40;99.90
13880;DHT22;7010;48.200;16.332;2023-01-13T05:10:26;6.30;99.90
13880;DHT22;7010;48.200;16.332;2023-01-13T05:12:56;6.30;99.90
13880;DHT22;7010;48.200;16.332;2023-01-13T05:15:42;6.20;99.90
13880;DHT22;7010;48.200;16.332;2023-01-13T05:18:30;6.20;99.90
13880;DHT22;7010;48.200;16.332;2023-01-13T05:20:59;6.10;99.90
13880;DHT22;7010;48.200;16.332;2023-01-13T05:23:27;6.10;99.90
13880;DHT22;7010;48.200;16.332;2023-01-13T05:26:13;6.10;99.90
13880;DHT22;7010;48.200;16.332;2023-01-13T05:28:42;6.20;99.90
13880;DHT22;7010;48.200;16.332;2023-01-13T05:31:11;6.20;99.90
13880;DHT22;7010;48.200;16.332;2023-01-13T05:33:40;6.10;99.90
13880;DHT22;7010;48.200;16.332;2023-01-13T05:36:09;6.10;99.90
13880;DHT22;7010;48.200;16.332;2023-01-13T05:38:37;6.10;99.90
13880;DHT22;7010;48.200;16.332;2023-01-13T05:41:06;6.10;99.90
13880;DHT22;7010;48.200;16.332;2023-01-13T05:43:54;6.00;99.90
13880;DHT22;7010;48.200;16.332;2023-01-13T05:46:22;6.10;99.90
13880;DHT22;7010;48.200;16.332;2023-01-13T05:48:50;6.00;99.90
13880;DHT22;7010;48.200;16.332;2023-01-13T05:51:19;6.00;99.90
13880;DHT22;7010;48.200;16.332;2023-01-13T05:53:52;6.00;99.90
13880;DHT22;7010;48.200;16.332;2023-01-13T05:56:20;5.90;99.90
13880;DHT22;7010;48.200;16.332;2023-01-13T05:58:48;5.90;99.90
13880;DHT22;7010;48.200;16.332;2023-01-13T06:01:18;5.90;99.90
13880;DHT22;7010;48.200;16.332;2023-01-13T06:03:46;5.80;99.90
13880;DHT22;7010;48.200;16.332;2023-01-13T06:06:14;5.80;99.90
13880;DHT22;7010;48.200;16.332;2023-01-13T06:08:42;5.80;99.90
13880;DHT22;7010;48.200;16.332;2023-01-13T06:11:10;5.80;99.90
13880;DHT22;7010;48.200;16.332;2023-01-13T06:13:39;5.80;99.90
13880;DHT22;7010;48.200;16.332;2023-01-13T06:16:08;5.80;99.90
13880;DHT22;7010;48.200;16.332;2023-01-13T06:18:38;5.80;99.90
13880;DHT22;7010;48.200;16.332;2023-01-13T06:21:06;5.80;99.90
13880;DHT22;7010;48.200;16.332;2023-01-13T06:23:35;5.70;99.90
13880;DHT22;7010;48.200;16.332;2023-01-13T06:26:08;5.70;99.90
13880;DHT22;7010;48.200;16.332;2023-01-13T06:28:36;5.80;99.90
13880;DHT22;7010;48.200;16.332;2023-01-13T06:31:06;5.60;99.90
13880;DHT22;7010;48.200;16.332;2023-01-13T06:33:38;5.60;99.90
13880;DHT22;7010;48.200;16.332;2023-01-13T06:36:11;5.70;99.90
13880;DHT22;7010;48.200;16.332;2023-01-13T06:38:43;5.60;99.90
13880;DHT22;7010;48.200;16.332;2023-01-13T06:41:12;5.60;99.90
13880;DHT22;7010;48.200;16.332;2023-01-13T06:43:41;5.60;99.90
13880;DHT22;7010;48.200;16.332;2023-01-13T06:46:08;5.50;99.90
13880;DHT22;7010;48.200;16.332;2023-01-13T06:48:38;5.50;99.90
13880;DHT22;7010;48.200;16.332;2023-01-13T06:51:06;5.50;99.90
13880;DHT22;7010;48.200;16.332;2023-01-13T06:53:34;5.50;99.90
13880;DHT22;7010;48.200;16.332;2023-01-13T06:56:03;5.50;99.90
13880;DHT22;7010;48.200;16.332;2023-01-13T06:58:31;5.50;99.90
13880;DHT22;7010;48.200;16.332;2023-01-13T07:00:59;5.50;99.90
13880;DHT22;7010;48.200;16.332;2023-01-13T07:03:28;5.50;99.90
13880;DHT22;7010;48.200;16.332;2023-01-13T07:05:57;5.40;99.90
13880;DHT22;7010;48.200;16.332;2023-01-13T07:08:27;5.40;99.90
13880;DHT22;7010;48.200;16.332;2023-01-13T07:10:55;5.40;99.90
13880;DHT22;7010;48.200;16.332;2023-01-13T07:13:24;5.50;99.90
13880;DHT22;7010;48.200;16.332;2023-01-13T07:16:09;5.50;99.90
13880;DHT22;7010;48.200;16.332;2023-01-13T07:18:38;5.50;99.90
13880;DHT22;7010;48.200;16.332;2023-01-13T07:21:09;5.60;99.90
13880;DHT22;7010;48.200;16.332;2023-01-13T07:23:38;5.60;99.90
13880;DHT22;7010;48.200;16.332;2023-01-13T07:26:08;5.60;99.90
13880;DHT22;7010;48.200;16.332;2023-01-13T07:28:37;5.60;99.90
13880;DHT22;7010;48.200;16.332;2023-01-13T07:31:12;5.70;99.90
13880;DHT22;7010;48.200;16.332;2023-01-13T07:33:41;5.70;99.90
13880;DHT22;7010;48.200;16.332;2023-01-13T07:36:11;5.60;99.90
13880;DHT22;7010;48.200;16.332;2023-01-13T07:38:40;5.70;99.90
13880;DHT22;7010;48.200;16.332;2023-01-13T07:41:11;5.70;99.90
13880;DHT22;7010;48.200;16.332;2023-01-13T07:43:57;5.70;99.90
13880;DHT22;7010;48.200;16.332;2023-01-13T07:46:26;5.70;99.90
13880;DHT22;7010;48.200;16.332;2023-01-13T07:48:54;5.70;99.90
13880;DHT22;7010;48.200;16.332;2023-01-13T07:51:24;5.80;99.90
13880;DHT22;7010;48.200;16.332;2023-01-13T07:53:54;5.80;99.90
13880;DHT22;7010;48.200;16.332;2023-01-13T07:56:23;5.90;99.90
13880;DHT22;7010;48.200;16.332;2023-01-13T07:58:51;5.80;99.90
13880;DHT22;7010;48.200;16.332;2023-01-13T08:01:19;5.80;99.90
13880;DHT22;7010;48.200;16.332;2023-01-13T08:03:47;5.80;99.90
13880;DHT22;7010;48.200;16.332;2023-01-13T08:06:16;5.90;99.90
13880;DHT22;7010;48.200;16.332;2023-01-13T08:08:46;5.90;99.90
13880;DHT22;7010;48.200;16.332;2023-01-13T08:11:16;5.90;99.90
13880;DHT22;7010;48.200;16.332;2023-01-13T08:13:47;6.00;99.90
13880;DHT22;7010;48.200;16.332;2023-01-13T08:16:16;6.00;99.90
13880;DHT22;7010;48.200;16.332;2023-01-13T08:18:44;6.00;99.90
13880;DHT22;7010;48.200;16.332;2023-01-13T08:21:13;6.00;99.90
13880;DHT22;7010;48.200;16.332;2023-01-13T08:23:43;6.00;99.90
13880;DHT22;7010;48.200;16.332;2023-01-13T08:26:15;6.00;99.90
13880;DHT22;7010;48.200;16.332;2023-01-13T08:28:44;6.00;99.90
13880;DHT22;7010;48.200;16.332;2023-01-13T08:31:14;6.00;99.90
13880;DHT22;7010;48.200;16.332;2023-01-13T08:33:43;6.10;99.90
13880;DHT22;7010;48.200;16.332;2023-01-13T08:36:11;6.00;99.90
13880;DHT22;7010;48.200;16.332;2023-01-13T08:38:43;6.10;99.90
13880;DHT22;7010;48.200;16.332;2023-01-13T08:41:14;6.10;99.90
13880;DHT22;7010;48.200;16.332;2023-01-13T08:44:03;6.20;99.90
13880;DHT22;7010;48.200;16.332;2023-01-13T08:46:32;6.20;99.90
13880;DHT22;7010;48.200;16.332;2023-01-13T08:49:01;6.30;99.90
13880;DHT22;7010;48.200;16.332;2023-01-13T08:51:29;6.30;99.90
13880;DHT22;7010;48.200;16.332;2023-01-13T08:53:57;6.30;99.90
13880;DHT22;7010;48.200;16.332;2023-01-13T08:56:27;6.40;99.90
13880;DHT22;7010;48.200;16.332;2023-01-13T08:58:58;6.40;99.90
13880;DHT22;7010;48.200;16.332;2023-01-13T09:01:27;6.50;99.90
13880;DHT22;7010;48.200;16.332;2023-01-13T09:03:55;6.60;99.90
13880;DHT22;7010;48.200;16.332;2023-01-13T09:06:24;6.60;99.90
13880;DHT22;7010;48.200;16.332;2023-01-13T09:08:52;6.60;99.90
13880;DHT22;7010;48.200;16.332;2023-01-13T09:11:27;6.70;99.90
13880;DHT22;7010;48.200;16.332;2023-01-13T09:14:16;6.70;99.90
13880;DHT22;7010;48.200;16.332;2023-01-13T09:16:45;6.80;99.90
13880;DHT22;7010;48.200;16.332;2023-01-13T09:19:13;6.80;99.90
13880;DHT22;7010;48.200;16.332;2023-01-13T09:21:41;6.80;99.90
13880;DHT22;7010;48.200;16.332;2023-01-13T09:24:10;6.80;99.90
13880;DHT22;7010;48.200;16.332;2023-01-13T09:26:39;6.80;99.90
13880;DHT22;7010;48.200;16.332;2023-01-13T09:29:08;6.90;99.90
13880;DHT22;7010;48.200;16.332;2023-01-13T09:31:36;6.90;99.90
13880;DHT22;7010;48.200;16.332;2023-01-13T09:34:05;6.90;99.90
13880;DHT22;7010;48.200;16.332;2023-01-13T09:36:51;7.00;99.90
13880;DHT22;7010;48.200;16.332;2023-01-13T09:39:19;7.00;99.90
13880;DHT22;7010;48.200;16.332;2023-01-13T09:41:53;7.00;99.90
13880;DHT22;7010;48.200;16.332;2023-01-13T09:44:44;7.00;99.90
13880;DHT22;7010;48.200;16.332;2023-01-13T09:47:20;7.10;99.90
13880;DHT22;7010;48.200;16.332;2023-01-13T09:49:50;7.10;99.90
13880;DHT22;7010;48.200;16.332;2023-01-13T09:52:20;7.10;99.90
13880;DHT22;7010;48.200;16.332;2023-01-13T09:54:56;7.10;99.90
13880;DHT22;7010;48.200;16.332;2023-01-13T09:57:29;7.10;99.90
13880;DHT22;7010;48.200;16.332;2023-01-13T09:59:59;7.10;99.90
13880;DHT22;7010;48.200;16.332;2023-01-13T10:02:36;7.10;99.90
13880;DHT22;7010;48.200;16.332;2023-01-13T10:05:15;7.10;99.90
13880;DHT22;7010;48.200;16.332;2023-01-13T10:07:49;7.10;99.90
13880;DHT22;7010;48.200;16.332;2023-01-13T10:10:26;7.10;99.90
13880;DHT22;7010;48.200;16.332;2023-01-13T10:12:58;7.10;99.90
13880;DHT22;7010;48.200;16.332;2023-01-13T10:16:12;7.10;99.90
13880;DHT22;7010;48.200;16.332;2023-01-13T10:18:54;7.10;99.90
13880;DHT22;7010;48.200;16.332;2023-01-13T10:21:44;7.10;99.90
13880;DHT22;7010;48.200;16.332;2023-01-13T10:24:23;7.10;99.90
13880;DHT22;7010;48.200;16.332;2023-01-13T10:27:00;7.20;99.90
13880;DHT22;7010;48.200;16.332;2023-01-13T10:29:31;7.20;99.90
13880;DHT22;7010;48.200;16.332;2023-01-13T10:32:00;7.20;99.90
13880;DHT22;7010;48.200;16.332;2023-01-13T10:34:29;7.20;99.90
13880;DHT22;7010;48.200;16.332;2023-01-13T10:36:59;7.30;99.90
13880;DHT22;7010;48.200;16.332;2023-01-13T10:39:38;7.50;99.90
13880;DHT22;7010;48.200;16.332;2023-01-13T10:42:12;7.70;99.90
13880;DHT22;7010;48.200;16.332;2023-01-13T10:44:48;7.90;99.90
13880;DHT22;7010;48.200;16.332;2023-01-13T10:47:22;8.20;99.90
13880;DHT22;7010;48.200;16.332;2023-01-13T10:50:19;8.50;99.90
13880;DHT22;7010;48.200;16.332;2023-01-13T10:52:57;8.80;99.90
13880;DHT22;7010;48.200;16.332;2023-01-13T10:55:27;9.00;99.90
13880;DHT22;7010;48.200;16.332;2023-01-13T10:58:10;9.10;99.90
13880;DHT22;7010;48.200;16.332;2023-01-13T11:00:41;9.00;99.90
13880;DHT22;7010;48.200;16.332;2023-01-13T11:03:15;9.00;99.90
13880;DHT22;7010;48.200;16.332;2023-01-13T11:05:49;9.10;99.90
13880;DHT22;7010;48.200;16.332;2023-01-13T11:08:20;9.30;99.90
13880;DHT22;7010;48.200;16.332;2023-01-13T11:10:51;9.20;99.90
13880;DHT22;7010;48.200;16.332;2023-01-13T11:13:25;9.30;99.90
13880;DHT22;7010;48.200;16.332;2023-01-13T11:16:00;9.30;99.90
13880;DHT22;7010;48.200;16.332;2023-01-13T11:18:39;9.30;99.90
13880;DHT22;7010;48.200;16.332;2023-01-13T11:21:21;9.30;99.90
13880;DHT22;7010;48.200;16.332;2023-01-13T11:24:00;9.30;99.90
13880;DHT22;7010;48.200;16.332;2023-01-13T11:26:40;9.40;99.90
13880;DHT22;7010;48.200;16.332;2023-01-13T11:29:13;9.50;99.90
13880;DHT22;7010;48.200;16.332;2023-01-13T11:31:48;9.50;99.90
13880;DHT22;7010;48.200;16.332;2023-01-13T11:34:25;9.60;99.90
13880;DHT22;7010;48.200;16.332;2023-01-13T11:36:57;9.50;99.90
13880;DHT22;7010;48.200;16.332;2023-01-13T11:39:43;9.50;99.90
13880;DHT22;7010;48.200;16.332;2023-01-13T11:42:19;9.50;99.90
13880;DHT22;7010;48.200;16.332;2023-01-13T11:45:00;9.50;99.90
13880;DHT22;7010;48.200;16.332;2023-01-13T11:47:32;9.50;99.90
13880;DHT22;7010;48.200;16.332;2023-01-13T11:50:03;9.60;99.90
13880;DHT22;7010;48.200;16.332;2023-01-13T11:53:04;9.60;99.90
13880;DHT22;7010;48.200;16.332;2023-01-13T11:55:40;9.70;99.90
13880;DHT22;7010;48.200;16.332;2023-01-13T11:58:30;9.80;99.90
13880;DHT22;7010;48.200;16.332;2023-01-13T12:01:27;9.90;99.90
13880;DHT22;7010;48.200;16.332;2023-01-13T12:04:12;9.90;99.90
13880;DHT22;7010;48.200;16.332;2023-01-13T12:06:47;10.00;99.90
13880;DHT22;7010;48.200;16.332;2023-01-13T12:09:30;10.10;99.90
13880;DHT22;7010;48.200;16.332;2023-01-13T12:12:09;10.10;99.90
13880;DHT22;7010;48.200;16.332;2023-01-13T12:17:51;10.30;99.90
13880;DHT22;7010;48.200;16.332;2023-01-13T12:20:31;10.40;99.90
13880;DHT22;7010;48.200;16.332;2023-01-13T12:23:05;10.50;99.90
13880;DHT22;7010;48.200;16.332;2023-01-13T12:25:39;10.40;99.90
13880;DHT22;7010;48.200;16.332;2023-01-13T12:28:12;10.50;99.90
13880;DHT22;7010;48.200;16.332;2023-01-13T12:30:44;10.70;99.90
13880;DHT22;7010;48.200;16.332;2023-01-13T12:33:21;10.80;99.90
13880;DHT22;7010;48.200;16.332;2023-01-13T12:35:58;11.00;99.90
13880;DHT22;7010;48.200;16.332;2023-01-13T12:38:35;11.10;99.90
13880;DHT22;7010;48.200;16.332;2023-01-13T12:41:13;11.20;99.90
13880;DHT22;7010;48.200;16.332;2023-01-13T12:43:46;11.40;99.90
13880;DHT22;7010;48.200;16.332;2023-01-13T12:46:34;11.70;99.90
13880;DHT22;7010;48.200;16.332;2023-01-13T12:49:11;11.90;99.90
13880;DHT22;7010;48.200;16.332;2023-01-13T12:55:24;12.40;99.90
13880;DHT22;7010;48.200;16.332;2023-01-13T13:00:59;12.60;99.90
13880;DHT22;7010;48.200;16.332;2023-01-13T13:03:34;12.40;99.90
13880;DHT22;7010;48.200;16.332;2023-01-13T13:06:09;12.40;99.90
13880;DHT22;7010;48.200;16.332;2023-01-13T13:09:01;12.10;99.90
13880;DHT22;7010;48.200;16.332;2023-01-13T13:11:41;12.00;99.90
13880;DHT22;7010;48.200;16.332;2023-01-13T13:14:59;11.70;99.90
13880;DHT22;7010;48.200;16.332;2023-01-13T13:17:44;11.60;99.90
13880;DHT22;7010;48.200;16.332;2023-01-13T13:20:59;11.60;99.90
13880;DHT22;7010;48.200;16.332;2023-01-13T13:26:39;11.20;99.90
13880;DHT22;7010;48.200;16.332;2023-01-13T13:29:38;11.00;99.90
13880;DHT22;7010;48.200;16.332;2023-01-13T13:32:55;10.80;99.90
13880;DHT22;7010;48.200;16.332;2023-01-13T13:35:38;10.60;99.90
13880;DHT22;7010;48.200;16.332;2023-01-13T13:38:20;10.40;99.90
13880;DHT22;7010;48.200;16.332;2023-01-13T13:41:13;10.40;99.90
13880;DHT22;7010;48.200;16.332;2023-01-13T13:44:11;10.30;99.90
13880;DHT22;7010;48.200;16.332;2023-01-13T13:47:01;10.20;99.90
13880;DHT22;7010;48.200;16.332;2023-01-13T13:49:42;10.00;99.90
13880;DHT22;7010;48.200;16.332;2023-01-13T13:52:17;9.90;99.90
13880;DHT22;7010;48.200;16.332;2023-01-13T13:54:49;9.90;99.90
13880;DHT22;7010;48.200;16.332;2023-01-13T13:57:21;9.80;99.90
13880;DHT22;7010;48.200;16.332;2023-01-13T13:59:54;9.70;99.90
13880;DHT22;7010;48.200;16.332;2023-01-13T14:02:26;9.60;99.90
13880;DHT22;7010;48.200;16.332;2023-01-13T14:05:16;9.60;99.90
13880;DHT22;7010;48.200;16.332;2023-01-13T14:07:47;9.40;99.90
13880;DHT22;7010;48.200;16.332;2023-01-13T14:10:19;9.50;99.90
13880;DHT22;7010;48.200;16.332;2023-01-13T14:12:48;9.40;99.90
13880;DHT22;7010;48.200;16.332;2023-01-13T14:15:29;9.40;99.90
13880;DHT22;7010;48.200;16.332;2023-01-13T14:18:02;9.30;99.90
13880;DHT22;7010;48.200;16.332;2023-01-13T14:20:31;9.20;99.90
13880;DHT22;7010;48.200;16.332;2023-01-13T14:23:00;9.10;99.90
13880;DHT22;7010;48.200;16.332;2023-01-13T14:25:34;9.00;99.90
13880;DHT22;7010;48.200;16.332;2023-01-13T14:28:21;9.00;99.90
13880;DHT22;7010;48.200;16.332;2023-01-13T14:30:54;9.00;99.90
13880;DHT22;7010;48.200;16.332;2023-01-13T14:33:31;8.80;99.90
13880;DHT22;7010;48.200;16.332;2023-01-13T14:36:16;8.70;99.90
13880;DHT22;7010;48.200;16.332;2023-01-13T14:38:46;8.60;99.90
13880;DHT22;7010;48.200;16.332;2023-01-13T14:41:21;8.50;99.90
13880;DHT22;7010;48.200;16.332;2023-01-13T14:43:53;8.40;99.90
13880;DHT22;7010;48.200;16.332;2023-01-13T14:46:35;8.30;99.90
13880;DHT22;7010;48.200;16.332;2023-01-13T14:49:18;8.20;99.90
13880;DHT22;7010;48.200;16.332;2023-01-13T14:51:49;8.10;99.90
13880;DHT22;7010;48.200;16.332;2023-01-13T14:54:45;8.00;99.90
13880;DHT22;7010;48.200;16.332;2023-01-13T14:57:17;8.00;99.90
13880;DHT22;7010;48.200;16.332;2023-01-13T14:59:57;8.00;99.90
13880;DHT22;7010;48.200;16.332;2023-01-13T15:02:42;8.00;99.90
13880;DHT22;7010;48.200;16.332;2023-01-13T15:05:36;7.90;99.90
13880;DHT22;7010;48.200;16.332;2023-01-13T15:11:27;7.90;99.90
13880;DHT22;7010;48.200;16.332;2023-01-13T15:13:58;7.80;99.90
13880;DHT22;7010;48.200;16.332;2023-01-13T15:16:28;7.80;99.90
13880;DHT22;7010;48.200;16.332;2023-01-13T15:19:02;7.80;99.90
13880;DHT22;7010;48.200;16.332;2023-01-13T15:21:30;7.80;99.90
13880;DHT22;7010;48.200;16.332;2023-01-13T15:23:58;7.80;99.90
13880;DHT22;7010;48.200;16.332;2023-01-13T15:26:28;7.80;99.90
13880;DHT22;7010;48.200;16.332;2023-01-13T15:28:57;7.80;99.90
13880;DHT22;7010;48.200;16.332;2023-01-13T15:31:27;7.80;99.90
13880;DHT22;7010;48.200;16.332;2023-01-13T15:33:56;7.70;99.90
13880;DHT22;7010;48.200;16.332;2023-01-13T15:36:28;7.70;99.90
13880;DHT22;7010;48.200;16.332;2023-01-13T15:38:58;7.60;99.90
13880;DHT22;7010;48.200;16.332;2023-01-13T15:41:27;7.60;99.90
13880;DHT22;7010;48.200;16.332;2023-01-13T15:44:14;7.60;99.90
13880;DHT22;7010;48.200;16.332;2023-01-13T15:47:01;7.60;99.90
13880;DHT22;7010;48.200;16.332;2023-01-13T15:49:34;7.60;99.90
13880;DHT22;7010;48.200;16.332;2023-01-13T15:52:15;7.50;99.90
13880;DHT22;7010;48.200;16.332;2023-01-13T15:54:44;7.50;99.90
13880;DHT22;7010;48.200;16.332;2023-01-13T15:57:19;7.50;99.90
13880;DHT22;7010;48.200;16.332;2023-01-13T15:59:48;7.50;99.90
13880;DHT22;7010;48.200;16.332;2023-01-13T16:02:17;7.50;99.90
13880;DHT22;7010;48.200;16.332;2023-01-13T16:04:48;7.50;99.90
13880;DHT22;7010;48.200;16.332;2023-01-13T16:07:25;7.50;99.90
13880;DHT22;7010;48.200;16.332;2023-01-13T16:10:00;7.40;99.90
13880;DHT22;7010;48.200;16.332;2023-01-13T16:12:41;7.50;99.90
13880;DHT22;7010;48.200;16.332;2023-01-13T16:15:13;7.50;99.90
13880;DHT22;7010;48.200;16.332;2023-01-13T16:17:42;7.50;99.90
13880;DHT22;7010;48.200;16.332;2023-01-13T16:20:16;7.50;99.90
13880;DHT22;7010;48.200;16.332;2023-01-13T16:22:46;7.40;99.90
13880;DHT22;7010;48.200;16.332;2023-01-13T16:25:15;7.40;99.90
13880;DHT22;7010;48.200;16.332;2023-01-13T16:27:44;7.40;99.90
13880;DHT22;7010;48.200;16.332;2023-01-13T16:30:21;7.40;99.90
13880;DHT22;7010;48.200;16.332;2023-01-13T16:32:50;7.40;99.90
13880;DHT22;7010;48.200;16.332;2023-01-13T16:35:18;7.40;99.90
13880;DHT22;7010;48.200;16.332;2023-01-13T16:37:48;7.40;99.90
13880;DHT22;7010;48.200;16.332;2023-01-13T16:40:24;7.30;99.90
13880;DHT22;7010;48.200;16.332;2023-01-13T16:42:57;7.30;99.90
13880;DHT22;7010;48.200;16.332;2023-01-13T16:45:26;7.30;99.90
13880;DHT22;7010;48.200;16.332;2023-01-13T16:47:55;7.20;99.90
13880;DHT22;7010;48.200;16.332;2023-01-13T16:50:32;7.20;99.90